Fort Hall Indian Reservation, Idaho
Current Conditions -  °F | °C
As of 10:00 PM on Friday 19 Dec 2014 (Local Time) from KPIH Reporting Station
Overcast Overcast  
Wind Chill: 28°   Ceiling: 5500
Heat Index: 36°   Visibility: 10mi
Dew Point: 34°   Wind: 12mph
Humidity: 93%   Direction: 210°SSW
Pressure: 30.1"   Gusts: NA
Location:  42.98°N, 112.307°W
Report Text: KPIH 200500Z AUTO 21010KT 10SM FEW024 FEW038 OVC055 02/01 A3010 RMK AO2 RAE0459 P0000 T00220011
Loading
Personal Weather Stations






























Interactive Weather Map New forecast layout! Learn more

10-Day Weather Forecast

Advertisements
Track Severe Weather on mobile